This is the latest recevied weather packets stored in our database for station/object PY2VE-13. If no packets are shown the sender has not sent any weather packets the latest 10 day(s).
| Time | Temp. | Humidity | Pressure | Rain* | Wind** | Luminosity | Snow |
|---|---|---|---|---|---|---|---|
| 1777421015 | 27.78° C | 57% | 1020.2 hPa | - | - | - | - |
| 1777420115 | 27.78° C | 58% | 1020.2 hPa | - | - | - | - |
| 1777419216 | 27.78° C | 57% | 1019.9 hPa | - | - | - | - |
| 1777418315 | 27.78° C | 58% | 1019.8 hPa | - | - | - | - |
| 1777417415 | 26.11° C | 62% | 1019.9 hPa | - | - | - | - |
| 1777416515 | 27.22° C | 58% | 1019.5 hPa | - | - | - | - |
| 1777415615 | 26.67° C | 60% | 1019.5 hPa | - | - | - | - |
| 1777414715 | 26.67° C | 60% | 1019.6 hPa | - | - | - | - |
| 1777413815 | 26.11° C | 60% | 1019.4 hPa | - | - | - | - |
| 1777412915 | 26.67° C | 60% | 1019.1 hPa | - | - | - | - |
| 1777412015 | 28.89° C | 54% | 1018.6 hPa | - | - | - | - |
| 1777411115 | 28.33° C | 54% | 1018.5 hPa | - | - | - | - |
| 1777410215 | 27.78° C | 53% | 1018.5 hPa | - | - | - | - |
| 1777409315 | 27.78° C | 52% | 1018.2 hPa | - | - | - | - |
| 1777408415 | 28.89° C | 50% | 1017.8 hPa | - | - | - | - |
| 1777407515 | 28.33° C | 52% | 1017.7 hPa | - | - | - | - |
| 1777406615 | 28.89° C | 52% | 1017.4 hPa | - | - | - | - |
| 1777405715 | 26.67° C | 55% | 1018.3 hPa | - | - | - | - |
| 1777404815 | 26.67° C | 53% | 1018.4 hPa | - | - | - | - |
| 1777403915 | 27.22° C | 54% | 1018.1 hPa | - | - | - | - |
| 1777403015 | 31.67° C | 42% | 1016.6 hPa | - | - | - | - |
| 1777402115 | 36.11° C | 34% | 1015.4 hPa | - | - | - | - |
| 1777401215 | 30.56° C | 43% | 1016.6 hPa | - | - | - | - |
| 1777400315 | 31.11° C | 41% | 1016.7 hPa | - | - | - | - |
| 1777399415 | 31.67° C | 41% | 1016.6 hPa | - | - | - | - |
* Rain since midnight (hover to see other rain measurements)
** Current wind speed in m/s (hover to see current wind gust speed)